createdAt,value
2022-12-06T00:01:36.736Z,7.07
2022-12-06T00:04:07.936Z,6.99
2022-12-06T00:06:41.621Z,6.96
2022-12-06T00:09:16.766Z,6.90
2022-12-06T00:11:45.590Z,6.95
2022-12-06T00:14:16.179Z,6.69
2022-12-06T00:16:45.116Z,6.82
2022-12-06T00:19:16.268Z,6.58
2022-12-06T00:21:45.204Z,6.75
2022-12-06T00:24:16.018Z,6.85
2022-12-06T00:26:47.479Z,6.90
2022-12-06T00:29:19.848Z,6.85
2022-12-06T00:31:49.330Z,7.05
2022-12-06T00:34:18.287Z,6.77
2022-12-06T00:36:47.841Z,6.85
2022-12-06T00:39:18.813Z,6.88
2022-12-06T00:41:47.598Z,6.64
2022-12-06T00:44:17.713Z,6.76
2022-12-06T00:46:46.402Z,6.74
2022-12-06T00:49:15.162Z,6.99
2022-12-06T00:51:43.825Z,7.03
2022-12-06T00:54:16.169Z,6.92
2022-12-06T00:56:44.875Z,7.03
2022-12-06T00:59:13.610Z,7.22
2022-12-06T01:01:43.746Z,7.20
2022-12-06T01:04:12.568Z,7.25
2022-12-06T01:06:41.294Z,7.33
2022-12-06T01:09:11.952Z,7.18
2022-12-06T01:11:40.832Z,7.23
2022-12-06T01:14:09.607Z,7.17
2022-12-06T01:16:38.255Z,7.00
2022-12-06T01:19:08.587Z,6.98
2022-12-06T01:21:37.242Z,7.09
2022-12-06T01:24:06.301Z,7.07
2022-12-06T01:26:36.622Z,7.06
2022-12-06T01:29:06.129Z,6.96
2022-12-06T01:31:39.089Z,6.89
2022-12-06T01:34:15.142Z,6.88
2022-12-06T01:36:44.051Z,6.93
2022-12-06T01:39:13.080Z,7.19
2022-12-06T01:41:41.947Z,7.16
2022-12-06T01:44:39.801Z,7.23
2022-12-06T01:47:11.904Z,7.16
2022-12-06T01:49:45.176Z,7.21
2022-12-06T01:52:15.326Z,7.14
2022-12-06T01:54:44.157Z,7.12
2022-12-06T01:57:15.137Z,7.23
2022-12-06T01:59:44.399Z,7.20
2022-12-06T02:02:13.413Z,7.21
2022-12-06T02:04:45.218Z,7.26
2022-12-06T02:07:14.398Z,7.22
2022-12-06T02:09:44.273Z,7.30
2022-12-06T02:12:15.770Z,7.17
2022-12-06T02:14:48.909Z,7.18
2022-12-06T02:17:30.823Z,7.09
2022-12-06T02:20:13.991Z,7.10
2022-12-06T02:23:22.801Z,7.06
2022-12-06T02:26:22.833Z,7.21
2022-12-06T02:29:21.173Z,7.17
2022-12-06T02:31:56.835Z,7.15
2022-12-06T02:34:32.833Z,7.13
2022-12-06T02:37:07.701Z,7.09
2022-12-06T02:39:41.653Z,7.09
2022-12-06T02:42:15.986Z,6.76
2022-12-06T02:44:50.307Z,6.95
2022-12-06T02:47:22.876Z,6.93
2022-12-06T02:49:54.760Z,6.91
2022-12-06T02:52:26.656Z,7.03
2022-12-06T02:54:58.205Z,7.07
2022-12-06T02:57:36.902Z,7.18
2022-12-06T03:00:20.699Z,7.14
2022-12-06T03:02:50.960Z,7.05
2022-12-06T03:05:29.008Z,7.19
2022-12-06T03:08:00.055Z,7.17
2022-12-06T03:10:41.976Z,7.16
2022-12-06T03:13:17.800Z,7.11
2022-12-06T03:15:55.071Z,7.31
2022-12-06T03:18:33.390Z,7.23
2022-12-06T03:21:06.908Z,7.19
2022-12-06T03:23:40.937Z,7.17
2022-12-06T03:26:14.720Z,7.28
2022-12-06T03:28:46.872Z,7.30
2022-12-06T03:31:16.262Z,7.25
2022-12-06T03:33:56.155Z,7.22
2022-12-06T03:36:27.563Z,7.31
2022-12-06T03:38:59.635Z,7.37
2022-12-06T03:41:47.145Z,7.33
2022-12-06T03:44:15.651Z,7.39
2022-12-06T03:46:50.833Z,7.30
2022-12-06T03:49:27.802Z,7.23
2022-12-06T03:51:56.501Z,7.21
2022-12-06T03:54:24.985Z,7.31
2022-12-06T03:56:53.421Z,7.36
2022-12-06T03:59:21.764Z,7.30
2022-12-06T04:01:50.222Z,7.38
2022-12-06T04:04:20.140Z,7.43
2022-12-06T04:06:48.573Z,7.53
2022-12-06T04:09:34.268Z,7.60
2022-12-06T04:12:02.680Z,7.46
2022-12-06T04:14:39.320Z,7.44
2022-12-06T04:17:26.796Z,7.31
2022-12-06T04:19:56.491Z,7.53
2022-12-06T04:22:42.467Z,7.49
2022-12-06T04:25:11.038Z,7.59
2022-12-06T04:27:56.771Z,7.46
2022-12-06T04:30:42.668Z,7.40
2022-12-06T04:33:28.375Z,7.36
2022-12-06T04:36:17.032Z,7.35
2022-12-06T04:38:45.803Z,7.47
2022-12-06T04:41:36.395Z,7.53
2022-12-06T04:44:04.792Z,7.57
2022-12-06T04:46:34.058Z,7.56
2022-12-06T04:49:02.434Z,7.58
2022-12-06T04:51:32.181Z,7.56
2022-12-06T04:54:00.568Z,7.49
2022-12-06T04:56:28.952Z,7.51
2022-12-06T04:58:57.300Z,7.36
2022-12-06T05:01:25.674Z,7.42
2022-12-06T05:03:54.521Z,7.51
2022-12-06T05:06:23.143Z,7.52
2022-12-06T05:08:53.197Z,7.60
2022-12-06T05:11:21.613Z,7.53
2022-12-06T05:13:49.978Z,7.51
2022-12-06T05:16:19.376Z,7.65
2022-12-06T05:18:47.736Z,7.67
2022-12-06T05:21:19.271Z,7.57
2022-12-06T05:23:48.072Z,7.46
2022-12-06T05:26:20.623Z,7.44
2022-12-06T05:28:49.811Z,7.43
2022-12-06T05:31:19.787Z,7.53
2022-12-06T05:33:49.045Z,7.44
2022-12-06T05:36:21.859Z,7.48
2022-12-06T05:38:51.958Z,7.43
2022-12-06T05:41:23.318Z,7.41
2022-12-06T05:43:52.226Z,7.59
2022-12-06T05:46:20.721Z,7.63
2022-12-06T05:48:49.200Z,7.63
2022-12-06T05:51:17.583Z,7.52
2022-12-06T05:53:45.936Z,7.55
2022-12-06T05:56:14.704Z,7.60
2022-12-06T06:01:14.532Z,7.61
2022-12-06T06:03:47.538Z,7.53
2022-12-06T06:06:16.836Z,7.64
2022-12-06T06:08:45.190Z,7.59
2022-12-06T06:11:13.596Z,7.65
2022-12-06T06:13:42.183Z,7.71
2022-12-06T06:16:10.685Z,7.70
2022-12-06T06:18:40.451Z,7.65
2022-12-06T06:21:08.807Z,7.62
2022-12-06T06:23:37.164Z,7.63
2022-12-06T06:26:09.020Z,7.64
2022-12-06T06:28:37.387Z,7.61
2022-12-06T06:31:07.151Z,7.56
2022-12-06T06:33:36.302Z,7.70
2022-12-06T06:36:07.220Z,7.64
2022-12-06T06:38:35.584Z,7.51
2022-12-06T06:41:04.610Z,7.58
2022-12-06T06:43:33.462Z,7.53
2022-12-06T06:46:04.350Z,7.53
2022-12-06T06:48:36.714Z,7.63
2022-12-06T06:51:08.481Z,7.57
2022-12-06T06:53:37.849Z,7.57
2022-12-06T06:56:07.112Z,7.56
2022-12-06T06:58:35.983Z,7.70
2022-12-06T07:01:06.717Z,7.67
2022-12-06T07:03:36.293Z,7.55
2022-12-06T07:06:10.303Z,7.57
2022-12-06T07:08:40.366Z,7.85
2022-12-06T07:11:09.557Z,7.65
2022-12-06T07:13:39.751Z,7.71
2022-12-06T07:16:13.611Z,7.69
2022-12-06T07:18:42.853Z,7.68
2022-12-06T07:21:15.705Z,7.60
2022-12-06T07:23:44.983Z,7.78
2022-12-06T07:26:16.002Z,7.73
2022-12-06T07:28:47.322Z,7.67
2022-12-06T07:31:19.824Z,7.76
2022-12-06T07:33:49.646Z,7.80
2022-12-06T07:36:22.745Z,7.88
2022-12-06T07:38:55.175Z,7.85
2022-12-06T07:41:42.741Z,7.82
2022-12-06T07:44:29.934Z,7.77
2022-12-06T07:46:59.209Z,7.59
2022-12-06T07:49:27.852Z,7.72
2022-12-06T07:51:58.547Z,7.71
2022-12-06T07:54:27.345Z,7.68
2022-12-06T07:56:57.299Z,7.86
2022-12-06T07:59:26.539Z,7.92
2022-12-06T08:01:55.528Z,7.90
2022-12-06T08:04:24.479Z,8.00
2022-12-06T08:06:53.900Z,7.94
2022-12-06T08:09:24.660Z,7.98
2022-12-06T08:11:53.298Z,7.97
2022-12-06T08:14:23.355Z,7.96
2022-12-06T08:16:52.224Z,7.90
2022-12-06T08:19:21.132Z,7.96
2022-12-06T08:21:49.900Z,8.08
2022-12-06T08:24:18.711Z,7.80
2022-12-06T08:26:48.935Z,8.03
2022-12-06T08:29:17.840Z,8.09
2022-12-06T08:31:46.609Z,8.12
2022-12-06T08:34:16.424Z,7.75
2022-12-06T08:36:45.514Z,7.71
2022-12-06T08:39:14.665Z,7.72
2022-12-06T08:41:59.280Z,7.60
2022-12-06T08:44:31.006Z,7.45
2022-12-06T08:47:01.172Z,7.79
2022-12-06T08:49:31.653Z,7.88
2022-12-06T08:52:00.809Z,8.07
2022-12-06T08:54:30.030Z,8.13
2022-12-06T08:56:58.796Z,8.16
2022-12-06T08:59:28.925Z,8.12
2022-12-06T09:01:57.606Z,8.14
2022-12-06T09:04:27.460Z,8.18
2022-12-06T09:06:56.159Z,8.15
2022-12-06T09:09:24.946Z,7.97
2022-12-06T09:11:53.695Z,8.21
2022-12-06T09:14:22.841Z,7.88
2022-12-06T09:16:53.313Z,7.94
2022-12-06T09:19:22.036Z,7.83
2022-12-06T09:21:50.805Z,7.92
2022-12-06T09:24:20.675Z,8.10
2022-12-06T09:26:49.864Z,7.66
2022-12-06T09:29:20.091Z,7.74
2022-12-06T09:31:49.104Z,7.84
2022-12-06T09:34:19.540Z,8.01
2022-12-06T09:36:52.804Z,7.61
2022-12-06T09:39:28.578Z,7.78
2022-12-06T09:42:21.907Z,7.95
2022-12-06T09:45:27.114Z,8.08
2022-12-06T09:48:13.466Z,8.17
2022-12-06T09:50:58.496Z,8.22
2022-12-06T09:53:40.435Z,8.21
2022-12-06T09:56:15.634Z,8.35
2022-12-06T09:59:00.338Z,7.75
2022-12-06T10:01:42.697Z,7.75
2022-12-06T10:04:39.431Z,7.98
2022-12-06T10:07:14.964Z,7.88
2022-12-06T10:09:53.114Z,8.21
2022-12-06T10:12:33.281Z,7.87
2022-12-06T10:15:25.237Z,8.04
2022-12-06T10:18:08.696Z,8.39
2022-12-06T10:20:45.656Z,8.54
2022-12-06T10:23:38.576Z,8.63
2022-12-06T10:26:17.084Z,8.10
2022-12-06T10:28:48.352Z,8.48
2022-12-06T10:31:27.986Z,7.99
2022-12-06T10:33:59.392Z,8.40
2022-12-06T10:36:43.575Z,8.38
2022-12-06T10:39:22.925Z,8.67
2022-12-06T10:42:00.034Z,8.81
2022-12-06T10:44:34.531Z,8.68
2022-12-06T10:47:08.194Z,8.67
2022-12-06T10:49:53.626Z,8.52
2022-12-06T10:52:32.901Z,8.66
2022-12-06T10:55:20.553Z,8.89
2022-12-06T10:57:56.312Z,8.81
2022-12-06T11:00:26.831Z,8.88
2022-12-06T11:03:04.742Z,8.87
2022-12-06T11:05:39.663Z,8.96
2022-12-06T11:08:13.957Z,8.74
2022-12-06T11:10:46.845Z,8.79
2022-12-06T11:13:23.321Z,8.91
2022-12-06T11:15:59.307Z,8.91
2022-12-06T11:18:30.654Z,8.78
2022-12-06T11:21:06.780Z,8.81
2022-12-06T11:23:46.580Z,8.50
2022-12-06T11:26:24.995Z,8.72
2022-12-06T11:29:05.084Z,8.55
2022-12-06T11:31:39.375Z,8.52
2022-12-06T11:34:19.099Z,8.69
2022-12-06T11:36:54.000Z,8.56
2022-12-06T11:39:25.662Z,8.85
2022-12-06T11:41:59.870Z,8.47
2022-12-06T11:44:36.411Z,8.74
2022-12-06T11:47:06.639Z,8.58
2022-12-06T11:49:40.204Z,8.44
2022-12-06T11:52:14.013Z,8.80
2022-12-06T11:54:49.380Z,9.04
2022-12-06T11:57:24.138Z,9.04
2022-12-06T12:00:18.472Z,9.08
2022-12-06T12:02:49.092Z,8.97
2022-12-06T12:05:23.298Z,9.06
2022-12-06T12:07:56.894Z,9.00
2022-12-06T12:10:36.745Z,9.06
2022-12-06T12:13:39.705Z,9.11
2022-12-06T12:16:17.463Z,9.10
2022-12-06T12:18:54.987Z,9.00
2022-12-06T12:21:40.150Z,9.20
2022-12-06T12:27:48.575Z,9.13
2022-12-06T12:30:40.504Z,8.95
2022-12-06T12:33:23.396Z,9.24
2022-12-06T12:36:11.231Z,8.04
2022-12-06T12:38:43.922Z,8.02
2022-12-06T12:41:32.673Z,7.84
2022-12-06T12:44:36.969Z,7.82
2022-12-06T12:46:58.097Z,8.33
2022-12-06T12:49:33.939Z,8.70
2022-12-06T12:52:22.273Z,8.45
2022-12-06T12:55:02.157Z,8.76
2022-12-06T12:57:32.313Z,8.65
2022-12-06T13:00:01.101Z,8.71
2022-12-06T13:02:32.041Z,8.68
2022-12-06T13:05:31.371Z,8.79
2022-12-06T13:07:57.584Z,8.52
2022-12-06T13:10:33.283Z,8.68
2022-12-06T13:13:06.397Z,9.05
2022-12-06T13:15:39.039Z,8.80
2022-12-06T13:18:14.725Z,8.58
2022-12-06T13:20:43.895Z,8.95
2022-12-06T13:23:19.294Z,9.02
2022-12-06T13:25:54.072Z,9.13
2022-12-06T13:28:30.550Z,9.09
2022-12-06T13:31:07.445Z,8.63
2022-12-06T13:33:43.494Z,9.00
2022-12-06T13:36:16.448Z,9.17
2022-12-06T13:38:45.022Z,9.19
2022-12-06T13:41:15.373Z,9.07
2022-12-06T13:43:54.123Z,9.11
2022-12-06T13:46:29.479Z,9.16
2022-12-06T13:48:59.441Z,9.12
2022-12-06T13:51:50.489Z,9.04
2022-12-06T13:54:36.904Z,9.01
2022-12-06T13:57:32.346Z,9.15
2022-12-06T14:00:02.364Z,8.79
2022-12-06T14:02:52.102Z,8.61
2022-12-06T14:06:07.486Z,8.82
2022-12-06T14:08:43.037Z,8.73
2022-12-06T14:11:25.190Z,8.96
2022-12-06T14:14:04.026Z,8.87
2022-12-06T14:16:40.044Z,8.94
2022-12-06T14:19:18.819Z,9.12
2022-12-06T14:21:56.204Z,9.12
2022-12-06T14:24:35.087Z,8.67
2022-12-06T14:27:12.879Z,9.01
2022-12-06T14:29:42.992Z,8.86
2022-12-06T14:32:13.128Z,8.87
2022-12-06T14:34:41.497Z,9.09
2022-12-06T14:37:21.543Z,9.15
2022-12-06T14:39:54.033Z,9.19
2022-12-06T14:42:40.655Z,9.20
2022-12-06T14:45:16.947Z,9.17
2022-12-06T14:47:47.062Z,9.01
2022-12-06T14:50:32.454Z,8.58
2022-12-06T14:53:06.463Z,8.82
2022-12-06T14:55:37.463Z,8.77
2022-12-06T14:58:17.335Z,8.57
2022-12-06T15:00:54.195Z,8.77
2022-12-06T15:03:32.035Z,8.89
2022-12-06T15:06:20.746Z,8.95
2022-12-06T15:08:55.171Z,8.86
2022-12-06T15:11:49.181Z,8.99
2022-12-06T15:14:22.064Z,8.78
2022-12-06T15:17:03.256Z,8.81
2022-12-06T15:19:35.885Z,8.94
2022-12-06T15:22:05.278Z,9.00
2022-12-06T15:24:33.781Z,8.95
2022-12-06T15:27:02.456Z,8.97
2022-12-06T15:29:30.762Z,9.02
2022-12-06T15:31:59.496Z,9.14
2022-12-06T15:34:30.898Z,9.01
2022-12-06T15:37:37.063Z,8.98
2022-12-06T15:39:50.324Z,9.03
2022-12-06T15:42:21.148Z,9.09
2022-12-06T15:44:52.723Z,9.08
2022-12-06T15:47:21.484Z,9.09
2022-12-06T15:49:51.827Z,9.11
2022-12-06T15:52:24.370Z,9.12
2022-12-06T15:54:52.941Z,9.09
2022-12-06T15:57:21.393Z,9.08
2022-12-06T15:59:49.811Z,9.04
2022-12-06T16:02:19.793Z,9.08
2022-12-06T16:04:50.984Z,9.07
2022-12-06T16:07:19.695Z,9.13
2022-12-06T16:09:50.021Z,9.15
2022-12-06T16:12:18.676Z,9.12
2022-12-06T16:14:47.118Z,9.11
2022-12-06T16:17:15.467Z,9.19
2022-12-06T16:20:01.282Z,9.19
2022-12-06T16:22:47.185Z,9.17
2022-12-06T16:25:16.913Z,9.23
2022-12-06T16:27:45.275Z,9.22
2022-12-06T16:30:14.721Z,9.17
2022-12-06T16:32:43.079Z,9.14
2022-12-06T16:35:11.405Z,9.13
2022-12-06T16:37:40.556Z,9.07
2022-12-06T16:40:21.065Z,9.20
2022-12-06T16:42:49.487Z,9.09
2022-12-06T16:45:18.531Z,9.11
2022-12-06T16:47:47.568Z,8.87
2022-12-06T16:50:24.574Z,8.98
2022-12-06T16:52:54.091Z,9.04
2022-12-06T16:55:23.847Z,9.04
2022-12-06T16:57:52.623Z,9.15
2022-12-06T17:00:22.676Z,9.19
2022-12-06T17:02:51.375Z,9.19
2022-12-06T17:05:23.105Z,9.12
2022-12-06T17:07:52.170Z,9.06
2022-12-06T17:10:22.906Z,9.18
2022-12-06T17:12:51.448Z,9.16
2022-12-06T17:15:22.294Z,9.18
2022-12-06T17:17:50.846Z,9.23
2022-12-06T17:20:20.459Z,9.24
2022-12-06T17:22:49.110Z,9.12
2022-12-06T17:25:18.125Z,9.25
2022-12-06T17:27:47.917Z,9.16
2022-12-06T17:30:18.732Z,9.13
2022-12-06T17:32:48.753Z,9.20
2022-12-06T17:35:17.367Z,9.20
2022-12-06T17:37:45.736Z,9.10
2022-12-06T17:40:15.626Z,9.07
2022-12-06T17:43:01.034Z,9.15
2022-12-06T17:45:31.032Z,8.95
2022-12-06T17:48:01.278Z,9.10
2022-12-06T17:50:29.642Z,8.36
2022-12-06T17:52:58.007Z,8.94
2022-12-06T17:55:26.451Z,8.39
2022-12-06T17:57:54.844Z,8.68
2022-12-06T18:00:24.032Z,8.93
2022-12-06T18:02:53.930Z,8.64
2022-12-06T18:05:22.444Z,8.12
2022-12-06T18:07:52.183Z,8.55
2022-12-06T18:10:20.530Z,7.79
2022-12-06T18:12:48.875Z,7.66
2022-12-06T18:15:34.695Z,8.59
2022-12-06T18:18:04.710Z,8.91
2022-12-06T18:20:33.031Z,8.96
2022-12-06T18:23:01.520Z,8.33
2022-12-06T18:25:29.900Z,8.89
2022-12-06T18:27:58.376Z,7.92
2022-12-06T18:30:26.685Z,8.14
2022-12-06T18:32:55.033Z,8.42
2022-12-06T18:35:24.729Z,8.50
2022-12-06T18:37:53.108Z,8.90
2022-12-06T18:40:21.469Z,8.74
2022-12-06T18:42:51.042Z,8.59
2022-12-06T18:45:19.374Z,8.60
2022-12-06T18:47:47.755Z,7.95
2022-12-06T18:50:16.246Z,8.32
2022-12-06T18:52:45.948Z,7.93
2022-12-06T18:55:14.297Z,7.86
2022-12-06T18:57:42.697Z,8.46
2022-12-06T19:00:14.250Z,8.22
2022-12-06T19:02:42.644Z,7.95
2022-12-06T19:05:11.286Z,8.44
2022-12-06T19:07:39.731Z,8.31
2022-12-06T19:10:10.827Z,8.68
2022-12-06T19:12:39.221Z,8.79
2022-12-06T19:15:09.332Z,8.64
2022-12-06T19:17:37.743Z,9.11
2022-12-06T19:20:07.642Z,8.71
2022-12-06T19:22:36.121Z,8.13
2022-12-06T19:25:04.646Z,7.84
2022-12-06T19:27:34.650Z,7.88
2022-12-06T19:30:03.307Z,8.32
2022-12-06T19:32:32.768Z,7.86
2022-12-06T19:35:08.111Z,8.00
2022-12-06T19:37:36.977Z,8.63
2022-12-06T19:40:06.890Z,8.52
2022-12-06T19:43:06.293Z,8.85
2022-12-06T19:45:34.622Z,8.84
2022-12-06T19:48:02.986Z,9.19
2022-12-06T19:50:31.310Z,9.25
2022-12-06T19:52:59.686Z,9.39
2022-12-06T19:55:28.041Z,8.79
2022-12-06T19:57:57.795Z,9.04
2022-12-06T20:00:26.252Z,8.98
2022-12-06T20:02:54.950Z,8.98
2022-12-06T20:05:23.588Z,8.32
2022-12-06T20:07:52.022Z,8.21
2022-12-06T20:10:20.394Z,8.59
2022-12-06T20:12:48.787Z,8.65
2022-12-06T20:15:18.685Z,8.70
2022-12-06T20:17:47.048Z,7.63
2022-12-06T20:20:15.436Z,8.15
2022-12-06T20:22:43.892Z,7.71
2022-12-06T20:25:12.246Z,8.22
2022-12-06T20:27:57.155Z,8.75
2022-12-06T20:30:26.859Z,8.58
2022-12-06T20:32:55.238Z,8.53
2022-12-06T20:35:24.449Z,8.41
2022-12-06T20:37:52.828Z,8.88
2022-12-06T20:40:22.103Z,8.28
2022-12-06T20:42:52.854Z,8.89
2022-12-06T20:45:21.199Z,8.16
2022-12-06T20:47:54.488Z,8.67
2022-12-06T20:50:23.347Z,8.60
2022-12-06T20:52:51.847Z,7.88
2022-12-06T20:55:20.168Z,7.26
2022-12-06T20:57:48.544Z,8.00
2022-12-06T21:00:18.265Z,8.34
2022-12-06T21:02:46.885Z,8.26
2022-12-06T21:05:18.885Z,8.36
2022-12-06T21:07:47.473Z,8.67
2022-12-06T21:10:16.052Z,8.51
2022-12-06T21:12:44.407Z,7.92
2022-12-06T21:15:12.923Z,7.84
2022-12-06T21:17:41.336Z,7.78
2022-12-06T21:20:10.554Z,8.63
2022-12-06T21:22:40.287Z,8.85
2022-12-06T21:25:10.103Z,8.61
2022-12-06T21:27:38.769Z,8.79
2022-12-06T21:30:08.647Z,8.53
2022-12-06T21:32:37.293Z,8.91
2022-12-06T21:35:06.468Z,9.15
2022-12-06T21:37:35.091Z,8.58
2022-12-06T21:40:05.748Z,9.00
2022-12-06T21:42:34.157Z,9.21
2022-12-06T21:45:02.562Z,8.70
2022-12-06T21:47:30.954Z,8.09
2022-12-06T21:49:59.858Z,8.81
2022-12-06T21:52:28.512Z,8.80
2022-12-06T21:54:57.007Z,8.82
2022-12-06T21:57:26.813Z,8.78
2022-12-06T21:59:55.190Z,8.68
2022-12-06T22:02:23.610Z,8.08
2022-12-06T22:04:52.002Z,8.34
2022-12-06T22:07:20.390Z,8.29
2022-12-06T22:09:48.802Z,8.91
2022-12-06T22:12:17.255Z,8.87
2022-12-06T22:14:48.865Z,8.73
2022-12-06T22:17:17.501Z,9.11
2022-12-06T22:19:46.155Z,8.60
2022-12-06T22:22:14.810Z,9.14
2022-12-06T22:24:43.430Z,9.28
2022-12-06T22:27:12.104Z,8.93
2022-12-06T22:29:40.798Z,8.80
2022-12-06T22:32:10.748Z,9.07
2022-12-06T22:34:39.359Z,9.17
2022-12-06T22:37:07.976Z,8.46
2022-12-06T22:39:36.600Z,8.80
2022-12-06T22:42:05.399Z,8.26
2022-12-06T22:44:34.057Z,8.92
2022-12-06T22:47:02.746Z,8.97
2022-12-06T22:49:32.818Z,7.98
2022-12-06T22:52:01.443Z,8.74
2022-12-06T22:54:30.088Z,9.12
2022-12-06T22:56:58.717Z,9.12
2022-12-06T22:59:27.362Z,8.82
2022-12-06T23:01:55.993Z,9.12
2022-12-06T23:04:24.639Z,9.06
2022-12-06T23:06:54.588Z,8.72
2022-12-06T23:09:23.255Z,9.00
2022-12-06T23:11:51.917Z,9.13
2022-12-06T23:14:20.521Z,8.91
2022-12-06T23:16:49.295Z,9.04
2022-12-06T23:19:18.071Z,9.08
2022-12-06T23:21:46.838Z,8.65
2022-12-06T23:24:17.086Z,9.06
2022-12-06T23:26:50.658Z,9.21
2022-12-06T23:29:21.868Z,9.17
2022-12-06T23:31:50.586Z,8.78
2022-12-06T23:34:22.476Z,9.12
2022-12-06T23:36:51.223Z,9.24
2022-12-06T23:39:20.984Z,8.82
2022-12-06T23:41:49.607Z,9.21
2022-12-06T23:44:17.992Z,9.31
2022-12-06T23:46:46.446Z,9.23
2022-12-06T23:49:18.898Z,9.37
2022-12-06T23:51:48.667Z,9.10
2022-12-06T23:54:20.082Z,9.07
2022-12-06T23:56:48.826Z,8.95
2022-12-06T23:59:18.788Z,9.19
